createdAt,value
2023-03-13T00:00:31.749Z,61.92
2023-03-13T00:05:41.519Z,62.26
2023-03-13T00:10:49.893Z,62.50
2023-03-13T00:16:06.845Z,62.64
2023-03-13T00:21:15.143Z,62.87
2023-03-13T00:26:25.469Z,63.29
2023-03-13T00:31:34.490Z,63.24
2023-03-13T00:36:43.316Z,63.59
2023-03-13T00:41:51.808Z,63.82
2023-03-13T00:46:59.568Z,63.65
2023-03-13T00:52:08.496Z,63.41
2023-03-13T00:57:16.706Z,63.37
2023-03-13T01:02:25.265Z,63.46
2023-03-13T01:07:36.436Z,63.29
2023-03-13T01:12:44.951Z,63.15
2023-03-13T01:17:53.296Z,63.38
2023-03-13T01:23:01.088Z,63.37
2023-03-13T01:28:09.501Z,63.60
2023-03-13T01:33:17.206Z,63.85
2023-03-13T01:38:24.474Z,63.83
2023-03-13T01:43:34.807Z,63.78
2023-03-13T01:48:48.995Z,64.02
2023-03-13T01:54:04.615Z,64.17
2023-03-13T01:59:16.288Z,63.80
2023-03-13T02:04:25.424Z,63.61
2023-03-13T02:09:36.328Z,63.65
2023-03-13T02:14:48.045Z,63.90
2023-03-13T02:19:57.550Z,63.96
2023-03-13T02:25:12.708Z,64.14
2023-03-13T02:30:22.986Z,63.98
2023-03-13T02:35:32.311Z,63.91
2023-03-13T02:40:45.856Z,64.08
2023-03-13T02:46:08.058Z,64.26
2023-03-13T02:51:24.732Z,64.37
2023-03-13T02:56:36.490Z,64.45
2023-03-13T03:01:44.214Z,64.59
2023-03-13T03:06:52.356Z,64.27
2023-03-13T03:12:00.208Z,64.22
2023-03-13T03:17:08.983Z,64.31
2023-03-13T03:22:16.700Z,64.62
2023-03-13T03:27:24.519Z,64.80
2023-03-13T03:32:34.225Z,64.74
2023-03-13T03:37:42.470Z,65.15
2023-03-13T03:42:50.913Z,65.10
2023-03-13T03:48:02.243Z,65.20
2023-03-13T03:53:11.892Z,65.13
2023-03-13T03:58:22.621Z,65.32
2023-03-13T04:03:41.898Z,65.21
2023-03-13T04:08:50.613Z,65.41
2023-03-13T04:14:01.429Z,65.67
2023-03-13T04:19:09.534Z,65.68
2023-03-13T04:24:17.098Z,65.83
2023-03-13T04:29:25.536Z,65.90
2023-03-13T04:34:50.268Z,65.64
2023-03-13T04:40:13.051Z,65.70
2023-03-13T04:45:37.426Z,65.67
2023-03-13T04:51:04.072Z,65.77
2023-03-13T04:56:43.131Z,65.88
2023-03-13T05:02:28.074Z,66.21
2023-03-13T05:07:55.295Z,66.32
2023-03-13T05:13:38.998Z,66.17
2023-03-13T05:18:57.679Z,66.25
2023-03-13T05:24:42.211Z,66.33
2023-03-13T05:30:09.744Z,66.28
2023-03-13T05:35:35.613Z,66.27
2023-03-13T05:41:02.391Z,66.28
2023-03-13T05:46:29.158Z,66.25
2023-03-13T05:51:48.922Z,66.32
2023-03-13T05:57:16.651Z,66.42
2023-03-13T06:02:44.355Z,66.64
2023-03-13T06:07:57.590Z,66.72
2023-03-13T06:13:18.931Z,66.63
2023-03-13T06:18:33.782Z,66.94
2023-03-13T06:23:42.747Z,67.16
2023-03-13T06:28:52.819Z,67.36
2023-03-13T06:34:01.246Z,67.45
2023-03-13T06:39:08.763Z,67.77
2023-03-13T06:44:16.692Z,67.84
2023-03-13T06:49:25.198Z,68.12
2023-03-13T06:54:33.869Z,68.18
2023-03-13T06:59:42.513Z,68.54
2023-03-13T07:04:51.199Z,68.55
2023-03-13T07:10:00.235Z,68.73
2023-03-13T07:15:10.348Z,68.77
2023-03-13T07:20:19.501Z,68.79
2023-03-13T07:25:28.230Z,68.90
2023-03-13T07:30:36.610Z,69.06
2023-03-13T07:35:49.791Z,68.84
2023-03-13T07:40:59.831Z,68.73
2023-03-13T07:46:10.139Z,68.83
2023-03-13T07:51:25.268Z,68.84
2023-03-13T07:56:39.100Z,68.84
2023-03-13T08:01:47.275Z,68.68
2023-03-13T08:06:55.774Z,68.72
2023-03-13T08:12:04.178Z,68.66
2023-03-13T08:17:12.683Z,68.65
2023-03-13T08:22:21.196Z,68.42
2023-03-13T08:27:31.084Z,68.47
2023-03-13T08:32:40.269Z,68.47
2023-03-13T08:37:48.631Z,68.27
2023-03-13T08:42:57.580Z,68.38
2023-03-13T08:48:05.549Z,68.20
2023-03-13T08:53:14.191Z,68.25
2023-03-13T08:58:21.754Z,68.37
2023-03-13T09:03:30.496Z,68.37
2023-03-13T09:08:39.898Z,68.32
2023-03-13T09:13:49.567Z,68.37
2023-03-13T09:19:00.258Z,68.60
2023-03-13T09:24:08.441Z,68.61
2023-03-13T09:29:16.046Z,68.75
2023-03-13T09:34:25.937Z,68.97
2023-03-13T09:39:34.278Z,69.22
2023-03-13T09:44:46.403Z,69.35
2023-03-13T09:49:56.069Z,69.46
2023-03-13T09:55:16.249Z,70.09
2023-03-13T10:00:29.856Z,70.12
2023-03-13T10:05:39.561Z,70.20
2023-03-13T10:10:52.372Z,70.43
2023-03-13T10:16:03.732Z,70.48
2023-03-13T10:21:21.555Z,70.74
2023-03-13T10:26:32.354Z,70.94
2023-03-13T10:31:41.514Z,70.96
2023-03-13T10:36:51.450Z,70.87
2023-03-13T10:42:12.180Z,70.90
2023-03-13T10:47:21.575Z,71.27
2023-03-13T10:52:44.084Z,71.24
2023-03-13T10:57:57.176Z,71.52
2023-03-13T11:03:08.142Z,71.79
2023-03-13T11:08:36.966Z,71.45
2023-03-13T11:13:46.390Z,71.68
2023-03-13T11:19:15.586Z,71.79
2023-03-13T11:24:29.907Z,71.81
2023-03-13T11:29:49.384Z,71.76
2023-03-13T11:35:00.986Z,71.87
2023-03-13T11:40:21.196Z,71.81
2023-03-13T11:45:59.615Z,71.94
2023-03-13T11:51:20.627Z,71.83
2023-03-13T11:56:37.970Z,72.00
2023-03-13T12:01:53.646Z,71.79
2023-03-13T12:07:07.332Z,71.70
2023-03-13T12:12:27.919Z,71.99
2023-03-13T12:17:37.867Z,71.96
2023-03-13T12:22:54.236Z,71.91
2023-03-13T12:28:18.239Z,72.13
2023-03-13T12:33:33.653Z,72.30
2023-03-13T12:38:48.432Z,72.35
2023-03-13T12:44:08.386Z,72.42
2023-03-13T12:50:06.528Z,72.60
2023-03-13T12:55:53.640Z,72.77
2023-03-13T13:01:07.513Z,72.89
2023-03-13T13:06:18.082Z,72.70
2023-03-13T13:11:50.820Z,72.72
2023-03-13T13:17:06.899Z,73.04
2023-03-13T13:22:52.805Z,73.19
2023-03-13T13:28:26.581Z,73.33
2023-03-13T13:33:42.854Z,73.55
2023-03-13T13:38:51.948Z,73.60
2023-03-13T13:44:36.366Z,73.75
2023-03-13T13:49:58.811Z,74.04
2023-03-13T13:55:06.542Z,74.07
2023-03-13T14:00:24.516Z,74.57
2023-03-13T14:05:34.871Z,73.87
2023-03-13T14:10:44.645Z,73.41
2023-03-13T14:15:54.521Z,73.45
2023-03-13T14:21:03.847Z,73.61
2023-03-13T14:26:18.289Z,73.52
2023-03-13T14:31:31.860Z,73.32
2023-03-13T14:36:57.090Z,72.89
2023-03-13T14:42:14.923Z,73.02
2023-03-13T14:47:27.050Z,72.99
2023-03-13T14:52:35.854Z,73.17
2023-03-13T14:57:59.905Z,72.65
2023-03-13T15:03:28.966Z,73.10
2023-03-13T15:08:38.968Z,73.04
2023-03-13T15:13:47.960Z,73.15
2023-03-13T15:18:57.183Z,72.98
2023-03-13T15:24:14.277Z,73.10
2023-03-13T15:29:21.777Z,73.37
2023-03-13T15:34:30.842Z,73.49
2023-03-13T15:39:38.899Z,73.44
2023-03-13T15:44:47.234Z,73.43
2023-03-13T15:49:54.588Z,73.81
2023-03-13T15:55:03.612Z,73.63
2023-03-13T16:00:19.819Z,73.82
2023-03-13T16:05:29.538Z,73.75
2023-03-13T16:10:38.782Z,74.01
2023-03-13T16:15:47.806Z,73.94
2023-03-13T16:20:55.551Z,73.71
2023-03-13T16:26:03.236Z,74.17
2023-03-13T16:31:17.481Z,74.46
2023-03-13T16:36:29.236Z,74.43
2023-03-13T16:41:37.529Z,74.19
2023-03-13T16:47:04.229Z,74.42
2023-03-13T16:52:18.319Z,74.32
2023-03-13T16:57:27.882Z,74.36
2023-03-13T17:02:38.111Z,74.52
2023-03-13T17:07:48.323Z,74.49
2023-03-13T17:12:55.821Z,74.40
2023-03-13T17:18:04.702Z,74.41
2023-03-13T17:23:13.460Z,74.55
2023-03-13T17:28:21.293Z,74.46
2023-03-13T17:33:28.915Z,74.71
2023-03-13T17:38:37.566Z,74.61
2023-03-13T17:43:46.252Z,74.63
2023-03-13T17:48:55.687Z,74.46
2023-03-13T17:54:05.026Z,74.48
2023-03-13T17:59:16.231Z,74.49
2023-03-13T18:04:25.622Z,74.70
2023-03-13T18:09:34.303Z,74.66
2023-03-13T18:14:42.633Z,74.56
2023-03-13T18:19:51.567Z,74.88
2023-03-13T18:24:59.708Z,74.69
2023-03-13T18:30:17.533Z,74.45
2023-03-13T18:35:26.329Z,74.68
2023-03-13T18:40:35.499Z,74.66
2023-03-13T18:45:44.360Z,74.60
2023-03-13T18:50:52.597Z,74.71
2023-03-13T18:56:04.078Z,74.57
2023-03-13T19:01:15.452Z,74.77
2023-03-13T19:06:26.914Z,74.80
2023-03-13T19:11:34.958Z,74.63
2023-03-13T19:16:48.522Z,74.76
2023-03-13T19:21:57.867Z,74.76
2023-03-13T19:27:07.014Z,74.93
2023-03-13T19:32:18.825Z,74.64
2023-03-13T19:37:27.167Z,75.01
2023-03-13T19:42:35.925Z,74.79
2023-03-13T19:47:44.468Z,74.84
2023-03-13T19:52:52.749Z,74.91
2023-03-13T19:58:02.670Z,74.90
2023-03-13T20:03:11.392Z,74.84
2023-03-13T20:08:20.136Z,74.79
2023-03-13T20:13:29.037Z,74.40
2023-03-13T20:18:37.531Z,74.35
2023-03-13T20:23:46.972Z,74.29
2023-03-13T20:28:56.361Z,74.60
2023-03-13T20:34:05.571Z,74.59
2023-03-13T20:39:14.061Z,74.36
2023-03-13T20:44:22.570Z,74.33
2023-03-13T20:49:30.992Z,74.25
2023-03-13T20:54:39.367Z,74.32
2023-03-13T20:59:48.039Z,74.34
2023-03-13T21:04:55.267Z,74.19
2023-03-13T21:10:05.073Z,74.35
2023-03-13T21:15:15.654Z,74.57
2023-03-13T21:20:24.331Z,74.32
2023-03-13T21:25:34.181Z,74.21
2023-03-13T21:30:42.868Z,74.10
2023-03-13T21:35:53.208Z,73.88
2023-03-13T21:41:02.221Z,73.95
2023-03-13T21:46:14.506Z,73.88
2023-03-13T21:51:20.763Z,73.96
2023-03-13T21:56:28.241Z,73.79
2023-03-13T22:01:36.422Z,73.67
2023-03-13T22:06:44.863Z,73.85
2023-03-13T22:11:53.061Z,73.90
2023-03-13T22:17:01.243Z,73.90
2023-03-13T22:22:09.760Z,73.57
2023-03-13T22:27:19.854Z,73.73
2023-03-13T22:32:28.363Z,73.69
2023-03-13T22:37:38.159Z,73.69
2023-03-13T22:42:46.633Z,73.51
2023-03-13T22:47:54.463Z,73.54
2023-03-13T22:53:02.026Z,73.71
2023-03-13T22:58:10.269Z,73.54
2023-03-13T23:03:18.822Z,73.48
2023-03-13T23:08:27.264Z,73.56
2023-03-13T23:13:35.563Z,73.27
2023-03-13T23:18:45.261Z,73.36
2023-03-13T23:23:56.845Z,73.26
2023-03-13T23:29:05.274Z,73.52
2023-03-13T23:34:12.597Z,73.51
2023-03-13T23:39:20.610Z,73.64
2023-03-13T23:44:28.168Z,73.55
2023-03-13T23:49:35.740Z,73.45
2023-03-13T23:54:44.281Z,73.42
2023-03-13T23:59:52.745Z,73.64
